OYBUY EDXW-EDXW
Flight info
| Callsign | OYBUY |
|---|---|
| Flight time | 0h 28m |
| Altitude | 8000 |
| Route | OLDIP1A OLDIP |
| Aircraft | DA42/L-SBDGRY/S |
Departure
| Time | 2026-04-17 21:05 |
|---|---|
| Airport | Westerland Sylt Airport (EDXW) |
Arrival
| Time | 2026-04-17 21:33 |
|---|---|
| Airport | Westerland Sylt Airport (EDXW) |
| Time | Latitude | Longitude | Altitude | Speed | Heading |
|---|---|---|---|---|---|
| 2026-04-17 20:59 | 54.92071 | 8.33806 | 37 ft | 0 kts | 265° |
| 2026-04-17 21:02 | 54.92071 | 8.33803 | 37 ft | 1 kts | 258° |
| 2026-04-17 21:02 | 54.92062 | 8.33771 | 36 ft | 6 kts | 214° |
| 2026-04-17 21:02 | 54.92016 | 8.33742 | 36 ft | 8 kts | 166° |
| 2026-04-17 21:02 | 54.91985 | 8.33696 | 36 ft | 9 kts | 244° |
| 2026-04-17 21:03 | 54.91944 | 8.33568 | 35 ft | 14 kts | 223° |
| 2026-04-17 21:03 | 54.91952 | 8.33419 | 35 ft | 15 kts | 255° |
| 2026-04-17 21:03 | 54.91902 | 8.33337 | 36 ft | 10 kts | 159° |
| 2026-04-17 21:03 | 54.91787 | 8.33476 | 37 ft | 42 kts | 155° |
| 2026-04-17 21:04 | 54.91437 | 8.33905 | 95 ft | 67 kts | 143° |
| 2026-04-17 21:04 | 54.91063 | 8.34359 | 263 ft | 65 kts | 144° |
| 2026-04-17 21:04 | 54.90725 | 8.34855 | 397 ft | 66 kts | 120° |
| 2026-04-17 21:04 | 54.90600 | 8.35594 | 585 ft | 62 kts | 95° |
| 2026-04-17 21:05 | 54.90809 | 8.36378 | 741 ft | 79 kts | 51° |
| 2026-04-17 21:05 | 54.91373 | 8.36812 | 996 ft | 99 kts | 9° |
| 2026-04-17 21:05 | 54.92051 | 8.36361 | 1329 ft | 112 kts | 321° |
| 2026-04-17 21:05 | 54.92730 | 8.35556 | 1574 ft | 121 kts | 328° |
| 2026-04-17 21:06 | 54.93454 | 8.34708 | 1423 ft | 131 kts | 310° |
| 2026-04-17 21:06 | 54.93707 | 8.33774 | 1339 ft | 123 kts | 270° |
| 2026-04-17 21:06 | 54.93678 | 8.33205 | 1296 ft | 116 kts | 245° |
| 2026-04-17 21:06 | 54.93525 | 8.32744 | 1283 ft | 108 kts | 219° |
| 2026-04-17 21:07 | 54.92999 | 8.32334 | 1095 ft | 99 kts | 184° |
| 2026-04-17 21:07 | 54.92421 | 8.32658 | 607 ft | 86 kts | 140° |
| 2026-04-17 21:07 | 54.91960 | 8.33251 | 166 ft | 77 kts | 142° |
| 2026-04-17 21:07 | 54.91592 | 8.33716 | 41 ft | 55 kts | 141° |
| 2026-04-17 21:08 | 54.91300 | 8.34076 | 37 ft | 63 kts | 142° |
| 2026-04-17 21:08 | 54.90890 | 8.34583 | 169 ft | 81 kts | 141° |
| 2026-04-17 21:08 | 54.90416 | 8.35128 | 458 ft | 82 kts | 143° |
| 2026-04-17 21:08 | 54.90000 | 8.35815 | 716 ft | 87 kts | 127° |
| 2026-04-17 21:09 | 54.89827 | 8.36810 | 1014 ft | 96 kts | 83° |
| 2026-04-17 21:09 | 54.90434 | 8.37515 | 1082 ft | 112 kts | 14° |
| 2026-04-17 21:09 | 54.91198 | 8.37597 | 1169 ft | 115 kts | 354° |
| 2026-04-17 21:09 | 54.91904 | 8.36913 | 1179 ft | 121 kts | 310° |
| 2026-04-17 21:10 | 54.92505 | 8.35969 | 1072 ft | 110 kts | 319° |
| 2026-04-17 21:10 | 54.93078 | 8.35114 | 919 ft | 110 kts | 316° |
| 2026-04-17 21:10 | 54.93540 | 8.34058 | 879 ft | 107 kts | 290° |
| 2026-04-17 21:10 | 54.93592 | 8.32821 | 757 ft | 94 kts | 234° |
| 2026-04-17 21:11 | 54.93123 | 8.32444 | 629 ft | 71 kts | 186° |
| 2026-04-17 21:11 | 54.92664 | 8.32448 | 474 ft | 65 kts | 161° |
| 2026-04-17 21:11 | 54.92500 | 8.32585 | 394 ft | 62 kts | 146° |
| 2026-04-17 21:11 | 54.92127 | 8.33056 | 180 ft | 64 kts | 143° |
| 2026-04-17 21:12 | 54.91774 | 8.33493 | 56 ft | 61 kts | 142° |
| 2026-04-17 21:12 | 54.91464 | 8.33880 | 36 ft | 52 kts | 143° |
| 2026-04-17 21:12 | 54.91106 | 8.34335 | 139 ft | 68 kts | 141° |
| 2026-04-17 21:12 | 54.90740 | 8.34677 | 446 ft | 65 kts | 139° |
| 2026-04-17 21:13 | 54.90415 | 8.35265 | 742 ft | 64 kts | 126° |
| 2026-04-17 21:13 | 54.90218 | 8.36025 | 971 ft | 80 kts | 97° |
| 2026-04-17 21:13 | 54.90568 | 8.36927 | 1190 ft | 101 kts | 49° |
| 2026-04-17 21:13 | 54.91239 | 8.37349 | 1481 ft | 113 kts | 352° |
| 2026-04-17 21:14 | 54.91877 | 8.36553 | 1781 ft | 110 kts | 306° |
| 2026-04-17 21:14 | 54.92129 | 8.35984 | 1885 ft | 105 kts | 300° |
| 2026-04-17 21:14 | 54.92559 | 8.34896 | 1805 ft | 108 kts | 302° |
| 2026-04-17 21:14 | 54.93038 | 8.33963 | 1909 ft | 95 kts | 308° |
| 2026-04-17 21:15 | 54.93533 | 8.33141 | 1860 ft | 106 kts | 319° |
| 2026-04-17 21:15 | 54.94219 | 8.32664 | 1869 ft | 113 kts | 354° |
| 2026-04-17 21:15 | 54.94973 | 8.32748 | 1983 ft | 105 kts | 11° |
| 2026-04-17 21:15 | 54.95727 | 8.32842 | 2002 ft | 110 kts | 358° |
| 2026-04-17 21:16 | 54.96500 | 8.32962 | 2017 ft | 120 kts | 11° |
| 2026-04-17 21:16 | 54.97341 | 8.33117 | 2244 ft | 126 kts | 4° |
| 2026-04-17 21:16 | 54.98240 | 8.33133 | 2404 ft | 136 kts | 356° |
| 2026-04-17 21:16 | 54.99230 | 8.33254 | 2427 ft | 150 kts | 9° |
| 2026-04-17 21:17 | 55.00244 | 8.33500 | 2651 ft | 145 kts | 9° |
| 2026-04-17 21:17 | 55.01272 | 8.33855 | 2671 ft | 154 kts | 15° |
| 2026-04-17 21:17 | 55.02301 | 8.34240 | 2869 ft | 150 kts | 8° |
| 2026-04-17 21:17 | 55.03314 | 8.34527 | 3038 ft | 148 kts | 11° |
| 2026-04-17 21:18 | 55.04336 | 8.34942 | 3107 ft | 154 kts | 22° |
| 2026-04-17 21:18 | 55.05262 | 8.35859 | 3262 ft | 150 kts | 34° |
| 2026-04-17 21:18 | 55.06164 | 8.36785 | 3393 ft | 153 kts | 29° |
| 2026-04-17 21:18 | 55.07145 | 8.37505 | 3515 ft | 153 kts | 16° |
| 2026-04-17 21:19 | 55.08219 | 8.38001 | 3490 ft | 161 kts | 12° |
| 2026-04-17 21:19 | 55.09301 | 8.38547 | 3492 ft | 166 kts | 21° |
| 2026-04-17 21:19 | 55.10389 | 8.39364 | 3314 ft | 176 kts | 25° |
| 2026-04-17 21:19 | 55.11472 | 8.40212 | 3395 ft | 169 kts | 26° |
| 2026-04-17 21:20 | 55.12491 | 8.41248 | 3420 ft | 165 kts | 33° |
| 2026-04-17 21:20 | 55.13461 | 8.42214 | 3656 ft | 153 kts | 26° |
| 2026-04-17 21:20 | 55.14452 | 8.42676 | 3847 ft | 151 kts | 1° |
| 2026-04-17 21:20 | 55.15521 | 8.42332 | 3817 ft | 158 kts | 343° |
| 2026-04-17 21:21 | 55.16556 | 8.42122 | 4133 ft | 146 kts | 355° |
| 2026-04-17 21:21 | 55.17593 | 8.41980 | 4171 ft | 154 kts | 356° |
| 2026-04-17 21:21 | 55.18521 | 8.42800 | 4266 ft | 156 kts | 52° |
| 2026-04-17 21:21 | 55.18917 | 8.44608 | 4207 ft | 160 kts | 85° |
| 2026-04-17 21:22 | 55.18927 | 8.46445 | 4442 ft | 150 kts | 99° |
| 2026-04-17 21:22 | 55.18698 | 8.48251 | 4529 ft | 146 kts | 111° |
| 2026-04-17 21:22 | 55.18245 | 8.49745 | 4646 ft | 145 kts | 135° |
| 2026-04-17 21:22 | 55.17509 | 8.50955 | 4724 ft | 144 kts | 142° |
| 2026-04-17 21:23 | 55.16722 | 8.52005 | 4799 ft | 143 kts | 159° |
| 2026-04-17 21:23 | 55.15744 | 8.52334 | 4856 ft | 141 kts | 181° |
| 2026-04-17 21:23 | 55.14780 | 8.52317 | 4641 ft | 143 kts | 184° |
| 2026-04-17 21:23 | 55.13788 | 8.52047 | 4394 ft | 141 kts | 196° |
| 2026-04-17 21:24 | 55.12900 | 8.51548 | 4327 ft | 131 kts | 201° |
| 2026-04-17 21:24 | 55.12085 | 8.50851 | 4139 ft | 131 kts | 216° |
| 2026-04-17 21:24 | 55.11420 | 8.49739 | 3946 ft | 132 kts | 223° |
| 2026-04-17 21:24 | 55.10726 | 8.48629 | 3652 ft | 134 kts | 218° |
| 2026-04-17 21:25 | 55.10082 | 8.47550 | 3449 ft | 124 kts | 236° |
| 2026-04-17 21:25 | 55.09870 | 8.46123 | 3335 ft | 118 kts | 256° |
| 2026-04-17 21:25 | 55.09728 | 8.44707 | 3108 ft | 121 kts | 253° |
| 2026-04-17 21:25 | 55.09498 | 8.43299 | 2881 ft | 119 kts | 244° |
| 2026-04-17 21:26 | 55.09123 | 8.42034 | 2662 ft | 117 kts | 230° |
| 2026-04-17 21:26 | 55.08569 | 8.41056 | 2461 ft | 113 kts | 212° |
| 2026-04-17 21:26 | 55.07895 | 8.40393 | 2267 ft | 109 kts | 200° |
| 2026-04-17 21:26 | 55.07189 | 8.39976 | 2119 ft | 103 kts | 196° |
| 2026-04-17 21:27 | 55.06553 | 8.39536 | 2057 ft | 94 kts | 199° |
| 2026-04-17 21:27 | 55.06025 | 8.38946 | 2030 ft | 88 kts | 216° |
| 2026-04-17 21:27 | 55.05531 | 8.38232 | 1837 ft | 95 kts | 212° |
| 2026-04-17 21:27 | 55.05069 | 8.37646 | 1905 ft | 76 kts | 203° |
| 2026-04-17 21:28 | 55.04528 | 8.37329 | 1736 ft | 81 kts | 191° |
| 2026-04-17 21:28 | 55.04014 | 8.37050 | 1696 ft | 76 kts | 193° |
| 2026-04-17 21:28 | 55.03484 | 8.36736 | 1655 ft | 85 kts | 195° |
| 2026-04-17 21:28 | 55.02914 | 8.36389 | 1743 ft | 88 kts | 197° |
| 2026-04-17 21:29 | 55.02323 | 8.36043 | 1828 ft | 91 kts | 193° |
| 2026-04-17 21:29 | 55.01722 | 8.35771 | 1967 ft | 87 kts | 193° |
| 2026-04-17 21:29 | 55.01101 | 8.35427 | 1900 ft | 103 kts | 197° |
| 2026-04-17 21:29 | 55.00398 | 8.35088 | 2100 ft | 106 kts | 186° |
| 2026-04-17 21:30 | 54.99610 | 8.34758 | 2075 ft | 124 kts | 190° |
| 2026-04-17 21:30 | 54.98780 | 8.34398 | 2193 ft | 127 kts | 194° |
| 2026-04-17 21:30 | 54.97903 | 8.33866 | 2138 ft | 138 kts | 199° |
| 2026-04-17 21:30 | 54.97009 | 8.33275 | 2146 ft | 140 kts | 198° |
| 2026-04-17 21:31 | 54.96057 | 8.32686 | 1807 ft | 149 kts | 197° |
| 2026-04-17 21:31 | 54.95078 | 8.32088 | 1382 ft | 145 kts | 196° |
| 2026-04-17 21:31 | 54.94267 | 8.31507 | 1297 ft | 97 kts | 196° |
| 2026-04-17 21:31 | 54.93679 | 8.31410 | 987 ft | 76 kts | 166° |
| 2026-04-17 21:32 | 54.93219 | 8.31739 | 703 ft | 74 kts | 152° |
| 2026-04-17 21:32 | 54.92795 | 8.32232 | 455 ft | 74 kts | 141° |
| 2026-04-17 21:32 | 54.92364 | 8.32766 | 177 ft | 73 kts | 143° |
| 2026-04-17 21:32 | 54.91978 | 8.33240 | 71 ft | 62 kts | 142° |
| 2026-04-17 21:33 | 54.91645 | 8.33654 | 40 ft | 54 kts | 141° |
| 2026-04-17 21:33 | 54.91426 | 8.33925 | 36 ft | 27 kts | 145° |
| 2026-04-17 21:33 | 54.91334 | 8.34074 | 36 ft | 9 kts | 68° |
| 2026-04-17 21:33 | 54.91369 | 8.34190 | 37 ft | 12 kts | 65° |
| 2026-04-17 21:34 | 54.91402 | 8.34305 | 39 ft | 10 kts | 64° |
| 2026-04-17 21:34 | 54.91456 | 8.34488 | 41 ft | 25 kts | 54° |
| 2026-04-17 21:34 | 54.91611 | 8.34932 | 51 ft | 19 kts | 58° |
| 2026-04-17 21:35 | 54.91667 | 8.34940 | 52 ft | 10 kts | 1° |
| 2026-04-17 21:35 | 54.91754 | 8.34918 | 52 ft | 15 kts | 312° |
| 2026-04-17 21:35 | 54.91728 | 8.34674 | 48 ft | 29 kts | 259° |
| 2026-04-17 21:35 | 54.91672 | 8.34337 | 42 ft | 28 kts | 257° |
| 2026-04-17 21:36 | 54.91689 | 8.33997 | 37 ft | 29 kts | 297° |
| 2026-04-17 21:36 | 54.91781 | 8.33761 | 36 ft | 18 kts | 303° |
| 2026-04-17 21:36 | 54.91864 | 8.33571 | 36 ft | 21 kts | 322° |
| 2026-04-17 21:36 | 54.91974 | 8.33655 | 36 ft | 20 kts | 68° |
| 2026-04-17 21:37 | 54.92027 | 8.33835 | 37 ft | 15 kts | 76° |
| 2026-04-17 21:37 | 54.92035 | 8.33906 | 37 ft | 0 kts | 90° |